createdAt,value
2019-06-07T00:00:33.574Z,968.30
2019-06-07T00:01:16.471Z,968.26
2019-06-07T00:02:16.429Z,968.30
2019-06-07T00:03:26.639Z,968.30
2019-06-07T00:04:16.097Z,968.34
2019-06-07T00:05:18.642Z,968.29
2019-06-07T00:06:20.357Z,968.28
2019-06-07T00:07:17.762Z,968.22
2019-06-07T00:08:22.500Z,968.18
2019-06-07T00:09:17.836Z,968.18
2019-06-07T00:10:31.389Z,968.16
2019-06-07T00:11:18.603Z,968.16
2019-06-07T00:12:17.596Z,968.17
2019-06-07T00:13:18.795Z,968.14
2019-06-07T00:14:16.592Z,968.19
2019-06-07T00:15:21.932Z,968.16
2019-06-07T00:16:20.844Z,968.12
2019-06-07T00:17:17.640Z,968.17
2019-06-07T00:18:23.118Z,968.23
2019-06-07T00:19:16.252Z,968.19
2019-06-07T00:20:22.659Z,968.21
2019-06-07T00:21:17.854Z,968.19
2019-06-07T00:22:29.134Z,968.21
2019-06-07T00:23:22.091Z,968.16
2019-06-07T00:24:16.816Z,968.15
2019-06-07T00:25:22.735Z,968.17
2019-06-07T00:26:18.174Z,968.21
2019-06-07T00:27:18.266Z,968.22
2019-06-07T00:28:17.320Z,968.20
2019-06-07T00:29:18.839Z,968.20
2019-06-07T00:30:35.949Z,968.20
2019-06-07T00:31:21.928Z,968.17
2019-06-07T00:32:19.978Z,968.23
2019-06-07T00:33:20.555Z,968.23
2019-06-07T00:34:19.110Z,968.20
2019-06-07T00:35:19.391Z,968.19
2019-06-07T00:36:18.168Z,968.19
2019-06-07T00:37:19.796Z,968.19
2019-06-07T00:38:19.016Z,968.20
2019-06-07T00:39:20.280Z,968.20
2019-06-07T00:40:25.407Z,968.22
2019-06-07T00:41:20.226Z,968.26
2019-06-07T00:42:19.361Z,968.27
2019-06-07T00:43:19.225Z,968.28
2019-06-07T00:44:19.822Z,968.33
2019-06-07T00:45:19.023Z,968.38
2019-06-07T00:46:18.810Z,968.34
2019-06-07T00:47:21.553Z,968.31
2019-06-07T00:48:27.481Z,968.33
2019-06-07T00:49:32.369Z,968.30
2019-06-07T00:50:21.026Z,968.34
2019-06-07T00:51:18.973Z,968.30
2019-06-07T00:53:07.035Z,968.31
2019-06-07T00:53:26.954Z,968.29
2019-06-07T00:54:19.897Z,968.32
2019-06-07T00:55:19.566Z,968.36
2019-06-07T00:56:20.311Z,968.32
2019-06-07T00:57:19.362Z,968.33
2019-06-07T00:58:21.227Z,968.29
2019-06-07T00:59:20.999Z,968.30
2019-06-07T01:00:21.876Z,968.35
2019-06-07T01:01:20.958Z,968.37
2019-06-07T01:02:19.250Z,968.40
2019-06-07T01:03:22.004Z,968.42
2019-06-07T01:04:20.496Z,968.43
2019-06-07T01:05:22.454Z,968.35
2019-06-07T01:06:21.355Z,968.37
2019-06-07T01:07:18.758Z,968.39
2019-06-07T01:08:20.002Z,968.37
2019-06-07T01:09:20.284Z,968.36
2019-06-07T01:10:46.448Z,968.33
2019-06-07T01:11:20.580Z,968.38
2019-06-07T01:12:19.834Z,968.41
2019-06-07T01:13:19.476Z,968.39
2019-06-07T01:14:20.310Z,968.38
2019-06-07T01:15:22.216Z,968.40
2019-06-07T01:16:19.502Z,968.40
2019-06-07T01:17:30.369Z,968.39
2019-06-07T01:18:39.332Z,968.33
2019-06-07T01:19:21.154Z,968.41
2019-06-07T01:20:21.225Z,968.42
2019-06-07T01:21:20.642Z,968.44
2019-06-07T01:22:20.688Z,968.40
2019-06-07T01:24:01.406Z,968.38
2019-06-07T01:24:20.028Z,968.34
2019-06-07T01:25:22.202Z,968.31
2019-06-07T01:26:20.560Z,968.34
2019-06-07T01:27:20.619Z,968.34
2019-06-07T01:28:21.371Z,968.36
2019-06-07T01:29:20.029Z,968.39
2019-06-07T01:30:22.773Z,968.40
2019-06-07T01:31:21.058Z,968.44
2019-06-07T01:32:20.962Z,968.46
2019-06-07T01:33:20.791Z,968.46
2019-06-07T01:34:20.991Z,968.48
2019-06-07T01:35:20.618Z,968.46
2019-06-07T01:36:20.071Z,968.43
2019-06-07T01:37:22.571Z,968.42
2019-06-07T01:38:21.927Z,968.43
2019-06-07T01:39:21.103Z,968.49
2019-06-07T01:40:20.776Z,968.46
2019-06-07T01:41:23.047Z,968.43
2019-06-07T01:42:20.377Z,968.41
2019-06-07T01:43:26.207Z,968.41
2019-06-07T01:44:22.764Z,968.40
2019-06-07T01:45:21.216Z,968.38
2019-06-07T01:46:20.767Z,968.39
2019-06-07T01:47:21.190Z,968.35
2019-06-07T01:48:23.094Z,968.37
2019-06-07T01:49:21.926Z,968.38
2019-06-07T01:50:23.358Z,968.38
2019-06-07T01:51:20.176Z,968.39
2019-06-07T01:52:23.574Z,968.41
2019-06-07T01:53:22.426Z,968.43
2019-06-07T01:54:52.097Z,968.45
2019-06-07T01:55:23.632Z,968.45
2019-06-07T01:56:21.986Z,968.44
2019-06-07T01:57:34.264Z,968.45
2019-06-07T01:58:21.810Z,968.43
2019-06-07T01:59:22.907Z,968.42
2019-06-07T02:00:22.008Z,968.44
2019-06-07T02:01:21.695Z,968.50
2019-06-07T02:02:22.569Z,968.49
2019-06-07T02:03:22.322Z,968.53
2019-06-07T02:04:23.259Z,968.52
2019-06-07T02:05:21.515Z,968.47
2019-06-07T02:06:21.698Z,968.47
2019-06-07T02:07:26.892Z,968.48
2019-06-07T02:08:22.219Z,968.44
2019-06-07T02:09:21.045Z,968.41
2019-06-07T02:10:24.619Z,968.42
2019-06-07T02:11:22.099Z,968.44
2019-06-07T02:12:29.065Z,968.47
2019-06-07T02:13:21.331Z,968.41
2019-06-07T02:14:24.160Z,968.45
2019-06-07T02:15:23.082Z,968.42
2019-06-07T02:16:21.825Z,968.41
2019-06-07T02:17:24.393Z,968.37
2019-06-07T02:18:23.293Z,968.38
2019-06-07T02:19:22.062Z,968.37
2019-06-07T02:20:25.701Z,968.47
2019-06-07T02:21:24.658Z,968.41
2019-06-07T02:22:23.634Z,968.46
2019-06-07T02:23:24.009Z,968.46
2019-06-07T02:24:24.856Z,968.48
2019-06-07T02:25:38.344Z,968.49
2019-06-07T02:26:22.945Z,968.46
2019-06-07T02:27:24.663Z,968.48
2019-06-07T02:28:32.079Z,968.52
2019-06-07T02:29:22.921Z,968.52
2019-06-07T02:30:40.617Z,968.52
2019-06-07T02:31:24.362Z,968.55
2019-06-07T02:32:24.254Z,968.50
2019-06-07T02:33:25.796Z,968.52
2019-06-07T02:34:24.109Z,968.51
2019-06-07T02:35:25.635Z,968.48
2019-06-07T02:36:25.471Z,968.47
2019-06-07T02:37:24.219Z,968.47
2019-06-07T02:38:25.236Z,968.41
2019-06-07T02:39:23.997Z,968.41
2019-06-07T02:40:24.387Z,968.40
2019-06-07T02:41:25.695Z,968.33
2019-06-07T02:42:26.110Z,968.32
2019-06-07T02:43:24.832Z,968.31
2019-06-07T02:44:24.042Z,968.31
2019-06-07T02:45:24.234Z,968.34
2019-06-07T02:46:30.693Z,968.36
2019-06-07T02:47:22.853Z,968.33
2019-06-07T02:48:24.522Z,968.30
2019-06-07T02:49:26.790Z,968.27
2019-06-07T02:50:23.192Z,968.28
2019-06-07T02:51:24.468Z,968.27
2019-06-07T02:52:27.334Z,968.28
2019-06-07T02:53:25.158Z,968.27
2019-06-07T02:54:24.075Z,968.26
2019-06-07T02:55:27.341Z,968.19
2019-06-07T02:56:54.120Z,968.19
2019-06-07T02:57:25.716Z,968.16
2019-06-07T02:58:26.135Z,968.15
2019-06-07T02:59:48.492Z,968.16
2019-06-07T03:00:55.372Z,968.19
2019-06-07T03:01:24.845Z,968.17
2019-06-07T03:02:25.561Z,968.17
2019-06-07T03:03:24.599Z,968.16
2019-06-07T03:04:26.463Z,968.15
2019-06-07T03:05:25.026Z,968.15
2019-06-07T03:06:23.696Z,968.13
2019-06-07T03:07:23.742Z,968.20
2019-06-07T03:08:23.793Z,968.14
2019-06-07T03:09:23.857Z,968.10
2019-06-07T03:10:23.882Z,968.09
2019-06-07T03:11:23.932Z,968.08
2019-06-07T03:12:23.976Z,968.08
2019-06-07T03:13:24.028Z,968.05
2019-06-07T03:14:24.093Z,968.06
2019-06-07T03:15:37.357Z,968.08
2019-06-07T03:16:24.165Z,968.02
2019-06-07T03:17:24.213Z,968.00
2019-06-07T03:18:24.259Z,968.03
2019-06-07T03:19:24.321Z,968.09
2019-06-07T03:20:24.357Z,968.13
2019-06-07T03:21:24.404Z,968.13
2019-06-07T03:22:24.446Z,968.17
2019-06-07T03:23:26.181Z,968.15
2019-06-07T03:24:24.658Z,968.11
2019-06-07T03:25:25.735Z,968.13
2019-06-07T03:26:24.630Z,968.10
2019-06-07T03:27:48.634Z,968.09
2019-06-07T03:28:24.729Z,968.11
2019-06-07T03:29:28.245Z,968.08
2019-06-07T03:30:58.116Z,968.08
2019-06-07T03:31:27.499Z,968.10
2019-06-07T03:32:24.914Z,968.06
2019-06-07T03:33:26.562Z,968.05
2019-06-07T03:34:25.029Z,968.06
2019-06-07T03:35:27.603Z,968.05
2019-06-07T03:36:26.018Z,968.03
2019-06-07T03:37:25.149Z,968.04
2019-06-07T03:38:25.192Z,968.02
2019-06-07T03:39:25.383Z,967.99
2019-06-07T03:40:25.315Z,968.01
2019-06-07T03:41:25.333Z,967.99
2019-06-07T03:42:25.387Z,967.99
2019-06-07T03:43:27.268Z,967.96
2019-06-07T03:44:27.870Z,967.97
2019-06-07T03:45:28.483Z,967.98
2019-06-07T03:46:27.248Z,967.97
2019-06-07T03:47:28.383Z,968.08
2019-06-07T03:48:28.361Z,968.12
2019-06-07T03:49:27.798Z,968.15
2019-06-07T03:50:28.247Z,968.16
2019-06-07T03:51:27.393Z,968.14
2019-06-07T03:52:27.189Z,968.10
2019-06-07T03:53:29.208Z,968.06
2019-06-07T03:54:27.169Z,968.07
2019-06-07T03:55:27.773Z,968.04
2019-06-07T03:56:28.124Z,968.00
2019-06-07T03:57:28.585Z,967.99
2019-06-07T03:58:45.740Z,967.98
2019-06-07T03:59:28.248Z,967.89
2019-06-07T04:00:28.752Z,967.86
2019-06-07T04:01:28.594Z,967.81
2019-06-07T04:02:27.769Z,967.82
2019-06-07T04:03:36.158Z,967.82
2019-06-07T04:04:27.341Z,967.87
2019-06-07T04:05:28.234Z,967.88
2019-06-07T04:06:28.828Z,967.89
2019-06-07T04:07:28.982Z,967.96
2019-06-07T04:08:28.154Z,968.01
2019-06-07T04:09:28.584Z,967.99
2019-06-07T04:10:45.864Z,967.98
2019-06-07T04:11:27.544Z,967.99
2019-06-07T04:12:28.119Z,968.03
2019-06-07T04:13:28.905Z,967.99
2019-06-07T04:14:29.330Z,967.94
2019-06-07T04:15:27.807Z,967.89
2019-06-07T04:16:28.833Z,967.86
2019-06-07T04:17:30.694Z,967.88
2019-06-07T04:18:27.918Z,967.92
2019-06-07T04:19:28.732Z,967.98
2019-06-07T04:20:29.309Z,967.95
2019-06-07T04:21:29.666Z,967.95
2019-06-07T04:22:28.784Z,967.99
2019-06-07T04:23:29.908Z,967.99
2019-06-07T04:24:28.624Z,967.98
2019-06-07T04:25:28.961Z,967.98
2019-06-07T04:26:30.917Z,967.94
2019-06-07T04:27:28.194Z,967.90
2019-06-07T04:29:23.796Z,967.86
2019-06-07T04:29:33.959Z,967.87
2019-06-07T04:30:29.422Z,967.86
2019-06-07T04:31:28.383Z,967.86
2019-06-07T04:32:29.788Z,967.82
2019-06-07T04:33:28.752Z,967.79
2019-06-07T04:34:29.319Z,967.81
2019-06-07T04:35:31.464Z,967.80
2019-06-07T04:36:44.153Z,967.81
2019-06-07T04:37:28.479Z,967.75
2019-06-07T04:38:29.496Z,967.77
2019-06-07T04:39:31.108Z,967.83
2019-06-07T04:40:30.704Z,967.83
2019-06-07T04:41:28.677Z,967.82
2019-06-07T04:42:29.971Z,967.77
2019-06-07T04:43:31.020Z,967.77
2019-06-07T04:44:28.862Z,967.81
2019-06-07T04:45:33.847Z,967.81
2019-06-07T04:46:28.924Z,967.82
2019-06-07T04:47:29.669Z,967.83
2019-06-07T04:48:30.916Z,967.83
2019-06-07T04:49:29.883Z,967.84
2019-06-07T04:50:30.959Z,967.81
2019-06-07T04:51:30.186Z,967.87
2019-06-07T04:52:29.948Z,967.87
2019-06-07T04:53:30.856Z,967.83
2019-06-07T04:54:31.099Z,967.81
2019-06-07T04:55:29.106Z,967.82
2019-06-07T04:56:29.986Z,967.82
2019-06-07T04:57:32.012Z,967.82
2019-06-07T04:58:30.437Z,967.83
2019-06-07T05:00:09.468Z,967.81
2019-06-07T05:00:59.256Z,967.80
2019-06-07T05:01:30.688Z,967.78
2019-06-07T05:02:29.534Z,967.78
2019-06-07T05:03:31.386Z,967.79
2019-06-07T05:04:31.444Z,967.76
2019-06-07T05:05:29.345Z,967.77
2019-06-07T05:06:30.066Z,967.79
2019-06-07T05:07:30.952Z,967.76
2019-06-07T05:08:31.481Z,967.75
2019-06-07T05:09:30.130Z,967.76
2019-06-07T05:10:30.622Z,967.67
2019-06-07T05:11:31.629Z,967.70
2019-06-07T05:12:30.017Z,967.70
2019-06-07T05:13:31.499Z,967.64
2019-06-07T05:14:32.533Z,967.63
2019-06-07T05:15:29.757Z,967.61
2019-06-07T05:16:30.644Z,967.65
2019-06-07T05:17:31.283Z,967.64
2019-06-07T05:18:29.941Z,967.63
2019-06-07T05:19:30.598Z,967.57
2019-06-07T05:20:29.999Z,967.62
2019-06-07T05:21:49.281Z,967.59
2019-06-07T05:22:31.538Z,967.60
2019-06-07T05:24:03.809Z,967.64
2019-06-07T05:24:30.725Z,967.63
2019-06-07T05:25:31.830Z,967.62
2019-06-07T05:26:30.561Z,967.67
2019-06-07T05:27:32.586Z,967.66
2019-06-07T05:28:30.386Z,967.65
2019-06-07T05:29:30.817Z,967.65
2019-06-07T05:31:31.180Z,967.69
2019-06-07T05:32:32.909Z,967.68
2019-06-07T05:33:31.129Z,967.70
2019-06-07T05:34:32.269Z,967.69
2019-06-07T05:35:30.726Z,967.68
2019-06-07T05:36:31.481Z,967.68
2019-06-07T05:37:32.542Z,967.59
2019-06-07T05:38:31.047Z,967.53
2019-06-07T05:39:32.116Z,967.54
2019-06-07T05:40:32.962Z,967.53
2019-06-07T05:41:32.289Z,967.54
2019-06-07T05:42:32.122Z,967.57
2019-06-07T05:43:34.929Z,967.59
2019-06-07T05:44:31.624Z,967.60
2019-06-07T05:45:32.336Z,967.61
2019-06-07T05:46:33.909Z,967.55
2019-06-07T05:47:31.794Z,967.54
2019-06-07T05:48:31.822Z,967.59
2019-06-07T05:49:32.893Z,967.57
2019-06-07T05:50:43.653Z,967.57
2019-06-07T05:51:32.243Z,967.54
2019-06-07T05:52:33.228Z,967.53
2019-06-07T05:53:32.813Z,967.50
2019-06-07T05:54:34.689Z,967.55
2019-06-07T05:55:32.722Z,967.53
2019-06-07T05:56:33.206Z,967.53
2019-06-07T05:57:35.881Z,967.48
2019-06-07T05:58:32.721Z,967.45
2019-06-07T05:59:33.403Z,967.38
2019-06-07T06:00:34.583Z,967.32
2019-06-07T06:01:58.938Z,967.27
2019-06-07T06:02:34.601Z,967.25
2019-06-07T06:03:34.580Z,967.24
2019-06-07T06:04:33.741Z,967.21
2019-06-07T06:05:36.383Z,967.23
2019-06-07T06:06:33.790Z,967.20
2019-06-07T06:07:34.753Z,967.23
2019-06-07T06:08:36.100Z,967.24
2019-06-07T06:09:32.405Z,967.21
2019-06-07T06:10:32.454Z,967.22
2019-06-07T06:11:45.621Z,967.21
2019-06-07T06:12:38.294Z,967.23
2019-06-07T06:13:32.579Z,967.19
2019-06-07T06:14:32.655Z,967.24
2019-06-07T06:15:42.146Z,967.28
2019-06-07T06:16:32.727Z,967.26
2019-06-07T06:17:32.779Z,967.28
2019-06-07T06:18:32.826Z,967.26
2019-06-07T06:19:32.895Z,967.25
2019-06-07T06:20:46.238Z,967.25
2019-06-07T06:21:32.973Z,967.23
2019-06-07T06:22:33.036Z,967.22
2019-06-07T06:23:33.086Z,967.24
2019-06-07T06:24:33.233Z,967.24
2019-06-07T06:25:34.268Z,967.19
2019-06-07T06:26:33.221Z,967.19
2019-06-07T06:28:33.323Z,967.24
2019-06-07T06:29:33.391Z,967.21
2019-06-07T06:30:33.421Z,967.24
2019-06-07T06:31:33.482Z,967.19
2019-06-07T06:32:48.853Z,967.18
2019-06-07T06:33:34.947Z,967.12
2019-06-07T06:34:33.645Z,967.10
2019-06-07T06:35:33.670Z,967.09
2019-06-07T06:36:33.717Z,967.09
2019-06-07T06:37:33.764Z,967.13
2019-06-07T06:38:33.811Z,967.15
2019-06-07T06:39:33.908Z,967.12
2019-06-07T06:40:33.912Z,967.13
2019-06-07T06:41:46.123Z,967.13
2019-06-07T06:42:34.018Z,967.09
2019-06-07T06:43:34.057Z,967.07
2019-06-07T06:44:34.146Z,967.12
2019-06-07T06:45:34.158Z,967.09
2019-06-07T06:46:40.975Z,967.04
2019-06-07T06:47:34.257Z,967.03
2019-06-07T06:48:34.314Z,967.08
2019-06-07T06:49:34.524Z,967.12
2019-06-07T06:50:34.426Z,967.08
2019-06-07T06:51:34.452Z,967.12
2019-06-07T06:52:34.510Z,967.12
2019-06-07T06:53:34.555Z,967.11
2019-06-07T06:54:41.001Z,967.14
2019-06-07T06:55:34.680Z,967.12
2019-06-07T06:56:34.750Z,967.08
2019-06-07T06:57:34.755Z,967.09
2019-06-07T06:59:18.824Z,967.04
2019-06-07T06:59:39.410Z,967.10
2019-06-07T07:00:48.387Z,967.06
2019-06-07T07:01:34.963Z,967.05
2019-06-07T07:02:35.006Z,967.08
2019-06-07T07:04:07.248Z,967.10
2019-06-07T07:04:35.104Z,967.04
2019-06-07T07:05:35.173Z,967.04
2019-06-07T07:06:35.217Z,967.02
2019-06-07T07:07:35.261Z,966.97
2019-06-07T07:08:35.305Z,967.01
2019-06-07T07:09:35.355Z,967.00
2019-06-07T07:10:35.445Z,967.03
2019-06-07T07:11:52.278Z,967.00
2019-06-07T07:12:35.508Z,966.99
2019-06-07T07:13:35.555Z,966.99
2019-06-07T07:14:35.612Z,966.99
2019-06-07T07:15:35.683Z,966.96
2019-06-07T07:16:35.857Z,966.96
2019-06-07T07:17:50.761Z,966.88
2019-06-07T07:18:35.821Z,966.85
2019-06-07T07:19:35.860Z,966.87
2019-06-07T07:20:35.918Z,966.89
2019-06-07T07:21:35.985Z,966.87
2019-06-07T07:22:36.020Z,966.89
2019-06-07T07:23:36.120Z,966.87
2019-06-07T07:24:36.126Z,966.90
2019-06-07T07:25:36.170Z,966.89
2019-06-07T07:26:36.239Z,966.81
2019-06-07T07:27:36.261Z,966.79
2019-06-07T07:28:36.328Z,966.78
2019-06-07T07:29:36.368Z,966.77
2019-06-07T07:30:37.513Z,966.76
2019-06-07T07:31:36.495Z,966.72
2019-06-07T07:32:36.540Z,966.74
2019-06-07T07:34:37.376Z,966.74
2019-06-07T07:35:36.676Z,966.74
2019-06-07T07:36:39.707Z,966.75
2019-06-07T07:37:36.792Z,966.72
2019-06-07T07:38:36.830Z,966.65
2019-06-07T07:39:36.903Z,966.65
2019-06-07T07:40:57.029Z,966.67
2019-06-07T07:41:37.011Z,966.69
2019-06-07T07:42:37.043Z,966.67
2019-06-07T07:43:37.135Z,966.64
2019-06-07T07:44:37.140Z,966.57
2019-06-07T07:45:37.210Z,966.59
2019-06-07T07:46:37.265Z,966.55
2019-06-07T07:47:55.948Z,966.55
2019-06-07T07:48:37.374Z,966.54
2019-06-07T07:49:37.406Z,966.50
2019-06-07T07:50:37.456Z,966.48
2019-06-07T07:51:37.533Z,966.45
2019-06-07T07:52:37.569Z,966.42
2019-06-07T07:53:48.623Z,966.41
2019-06-07T07:54:37.668Z,966.40
2019-06-07T07:55:37.891Z,966.34
2019-06-07T07:56:37.790Z,966.31
2019-06-07T07:57:37.829Z,966.29
2019-06-07T07:58:37.877Z,966.28
2019-06-07T07:59:42.197Z,966.32
2019-06-07T08:00:52.587Z,966.34
2019-06-07T08:01:38.075Z,966.28
2019-06-07T08:02:38.110Z,966.30
2019-06-07T08:03:38.146Z,966.21
2019-06-07T08:05:13.610Z,966.17
2019-06-07T08:05:43.148Z,966.12
2019-06-07T08:06:38.317Z,966.05
2019-06-07T08:07:38.507Z,965.99
2019-06-07T08:08:38.412Z,965.94
2019-06-07T08:09:38.457Z,965.95
2019-06-07T08:10:38.511Z,965.94
2019-06-07T08:11:38.568Z,965.89
2019-06-07T08:13:00.423Z,965.92
2019-06-07T08:13:38.667Z,965.91
2019-06-07T08:14:38.736Z,965.88
2019-06-07T08:15:38.773Z,965.91
2019-06-07T08:16:38.835Z,965.84
2019-06-07T08:17:38.901Z,965.85
2019-06-07T08:18:38.938Z,965.80
2019-06-07T08:19:38.985Z,965.80
2019-06-07T08:20:39.041Z,965.77
2019-06-07T08:21:39.105Z,965.71
2019-06-07T08:22:39.166Z,965.75
2019-06-07T08:23:39.198Z,965.77
2019-06-07T08:24:39.254Z,965.76
2019-06-07T08:25:39.410Z,965.75
2019-06-07T08:26:39.376Z,965.72
2019-06-07T08:27:39.432Z,965.71
2019-06-07T08:28:39.472Z,965.65
2019-06-07T08:29:45.118Z,965.70
2019-06-07T08:30:50.712Z,965.66
2019-06-07T08:31:39.627Z,965.63
2019-06-07T08:32:39.745Z,965.57
2019-06-07T08:33:39.737Z,965.49
2019-06-07T08:34:39.793Z,965.49
2019-06-07T08:36:42.332Z,965.50
2019-06-07T08:38:15.002Z,965.48
2019-06-07T08:38:47.873Z,965.49
2019-06-07T08:39:40.086Z,965.41
2019-06-07T08:40:40.142Z,965.48
2019-06-07T08:41:54.146Z,965.46
2019-06-07T08:42:59.780Z,965.54
2019-06-07T08:43:40.269Z,965.53
2019-06-07T08:44:40.325Z,965.51
2019-06-07T08:45:40.388Z,965.54
2019-06-07T08:46:40.467Z,965.48
2019-06-07T08:47:40.588Z,965.48
2019-06-07T08:48:40.538Z,965.51
2019-06-07T08:49:40.611Z,965.45
2019-06-07T08:50:40.652Z,965.43
2019-06-07T08:51:40.696Z,965.41
2019-06-07T08:52:40.776Z,965.45
2019-06-07T08:53:40.804Z,965.43
2019-06-07T08:54:40.928Z,965.48
2019-06-07T08:55:40.907Z,965.44
2019-06-07T08:56:41.038Z,965.50
2019-06-07T08:57:41.035Z,965.45
2019-06-07T08:58:41.082Z,965.46
2019-06-07T08:59:41.156Z,965.36
2019-06-07T09:00:46.205Z,965.45
2019-06-07T09:01:41.225Z,965.40
2019-06-07T09:02:41.280Z,965.35
2019-06-07T09:03:41.362Z,965.46
2019-06-07T09:04:41.383Z,965.39
2019-06-07T09:05:41.434Z,965.38
2019-06-07T09:07:02.577Z,965.36
2019-06-07T09:07:41.557Z,965.29
2019-06-07T09:08:41.615Z,965.21
2019-06-07T09:09:41.736Z,965.22
2019-06-07T09:10:42.457Z,965.16
2019-06-07T09:11:41.761Z,965.21
2019-06-07T09:12:41.806Z,965.20
2019-06-07T09:13:41.885Z,965.30
2019-06-07T09:14:58.676Z,965.21
2019-06-07T09:15:41.964Z,965.23
2019-06-07T09:16:42.029Z,965.20
2019-06-07T09:18:29.686Z,965.15
2019-06-07T09:18:44.769Z,965.14
2019-06-07T09:19:42.189Z,965.13
2019-06-07T09:20:42.235Z,965.12
2019-06-07T09:21:42.288Z,965.12
2019-06-07T09:22:42.331Z,965.10
2019-06-07T09:23:42.415Z,965.15
2019-06-07T09:24:42.487Z,965.13
2019-06-07T09:25:56.584Z,965.09
2019-06-07T09:26:42.648Z,965.03
2019-06-07T09:27:42.616Z,965.09
2019-06-07T09:28:42.650Z,965.11
2019-06-07T09:29:42.758Z,965.04
2019-06-07T09:30:42.759Z,964.99
2019-06-07T09:31:52.751Z,965.02
2019-06-07T09:32:42.866Z,964.95
2019-06-07T09:33:42.919Z,964.98
2019-06-07T09:34:42.995Z,965.08
2019-06-07T09:35:43.015Z,965.02
2019-06-07T09:36:43.087Z,965.01
2019-06-07T09:38:43.206Z,964.92
2019-06-07T09:39:43.243Z,964.97
2019-06-07T09:40:43.310Z,965.00
2019-06-07T09:41:49.529Z,964.91
2019-06-07T09:42:43.387Z,964.95
2019-06-07T09:44:43.488Z,964.99
2019-06-07T09:45:43.570Z,965.04
2019-06-07T09:46:43.651Z,965.03
2019-06-07T09:47:43.643Z,964.99
2019-06-07T09:49:43.773Z,964.98
2019-06-07T09:50:43.821Z,964.94
2019-06-07T09:51:43.848Z,964.96
2019-06-07T09:52:57.785Z,964.95
2019-06-07T09:53:43.965Z,964.96
2019-06-07T09:55:05.776Z,965.02
2019-06-07T09:55:44.095Z,964.97
2019-06-07T09:56:44.111Z,964.98
2019-06-07T09:57:44.239Z,964.96
2019-06-07T09:58:53.731Z,964.90
2019-06-07T09:59:44.282Z,964.94
2019-06-07T10:00:44.360Z,964.86
2019-06-07T10:01:44.382Z,964.93
2019-06-07T10:02:44.452Z,964.93
2019-06-07T10:03:44.492Z,964.91
2019-06-07T10:04:44.527Z,964.84
2019-06-07T10:05:44.611Z,964.87
2019-06-07T10:06:44.696Z,964.84
2019-06-07T10:07:59.972Z,964.80
2019-06-07T10:10:44.868Z,964.80
2019-06-07T10:11:44.890Z,964.76
2019-06-07T10:12:44.941Z,964.68
2019-06-07T10:13:45.039Z,964.63
2019-06-07T10:14:45.397Z,964.63
2019-06-07T10:15:45.132Z,964.63
2019-06-07T10:16:46.751Z,964.64
2019-06-07T10:17:45.207Z,964.65
2019-06-07T10:18:45.271Z,964.61
2019-06-07T10:19:45.318Z,964.51
2019-06-07T10:20:45.396Z,964.57
2019-06-07T10:21:45.416Z,964.53
2019-06-07T10:22:45.474Z,964.52
2019-06-07T10:23:45.520Z,964.54
2019-06-07T10:24:45.576Z,964.56
2019-06-07T10:25:45.642Z,964.51
2019-06-07T10:26:45.701Z,964.51
2019-06-07T10:27:45.732Z,964.51
2019-06-07T10:28:45.820Z,964.48
2019-06-07T10:29:45.840Z,964.49
2019-06-07T10:30:45.908Z,964.52
2019-06-07T10:31:46.045Z,964.53
2019-06-07T10:32:45.999Z,964.50
2019-06-07T10:33:46.045Z,964.56
2019-06-07T10:34:46.117Z,964.53
2019-06-07T10:35:46.160Z,964.52
2019-06-07T10:36:46.268Z,964.54
2019-06-07T10:37:46.265Z,964.58
2019-06-07T10:38:46.419Z,964.53
2019-06-07T10:39:48.963Z,964.56
2019-06-07T10:40:46.419Z,964.53
2019-06-07T10:41:46.506Z,964.60
2019-06-07T10:42:46.536Z,964.57
2019-06-07T10:43:46.614Z,964.64
2019-06-07T10:44:46.632Z,964.63
2019-06-07T10:45:46.709Z,964.55
2019-06-07T10:46:46.758Z,964.54
2019-06-07T10:47:46.802Z,964.54
2019-06-07T10:48:46.857Z,964.50
2019-06-07T10:49:46.910Z,964.52
2019-06-07T10:50:46.968Z,964.52
2019-06-07T10:51:47.035Z,964.45
2019-06-07T10:52:47.063Z,964.41
2019-06-07T10:53:47.134Z,964.36
2019-06-07T10:54:47.172Z,964.36
2019-06-07T10:55:47.221Z,964.34
2019-06-07T10:56:47.314Z,964.36
2019-06-07T10:57:47.335Z,964.38
2019-06-07T10:58:47.402Z,964.38
2019-06-07T10:59:47.442Z,964.26
2019-06-07T11:00:47.502Z,964.21
2019-06-07T11:01:47.653Z,964.23
2019-06-07T11:02:47.627Z,964.27
2019-06-07T11:03:47.655Z,964.30
2019-06-07T11:04:47.708Z,964.25
2019-06-07T11:05:47.769Z,964.18
2019-06-07T11:06:47.849Z,964.18
2019-06-07T11:07:47.946Z,964.15
2019-06-07T11:08:47.919Z,964.14
2019-06-07T11:10:02.890Z,964.17
2019-06-07T11:10:48.030Z,964.25
2019-06-07T11:11:48.090Z,964.29
2019-06-07T11:12:48.178Z,964.29
2019-06-07T11:13:48.190Z,964.30
2019-06-07T11:14:48.250Z,964.20
2019-06-07T11:15:48.357Z,964.25
2019-06-07T11:16:48.352Z,964.23
2019-06-07T11:17:48.428Z,964.27
2019-06-07T11:18:48.467Z,964.29
2019-06-07T11:19:48.509Z,964.23
2019-06-07T11:20:48.564Z,964.23
2019-06-07T11:21:48.620Z,964.26
2019-06-07T11:22:48.691Z,964.23
2019-06-07T11:23:48.782Z,964.18
2019-06-07T11:24:48.785Z,964.09
2019-06-07T11:25:48.840Z,964.12
2019-06-07T11:26:48.893Z,964.14
2019-06-07T11:27:48.972Z,964.13
2019-06-07T11:28:49.013Z,964.16
2019-06-07T11:29:49.064Z,964.16
2019-06-07T11:30:49.106Z,964.21
2019-06-07T11:31:49.157Z,964.11
2019-06-07T11:32:49.237Z,964.17
2019-06-07T11:33:49.290Z,964.09
2019-06-07T11:34:49.330Z,964.08
2019-06-07T11:35:49.374Z,964.11
2019-06-07T11:36:51.149Z,964.11
2019-06-07T11:37:49.522Z,964.08
2019-06-07T11:38:49.538Z,964.10
2019-06-07T11:39:49.590Z,964.07
2019-06-07T11:40:50.515Z,964.04
2019-06-07T11:41:49.816Z,963.95
2019-06-07T11:42:52.666Z,963.88
2019-06-07T11:43:49.805Z,963.90
2019-06-07T11:44:56.936Z,963.89
2019-06-07T11:45:49.927Z,963.98
2019-06-07T11:46:49.972Z,964.00
2019-06-07T11:47:50.066Z,964.04
2019-06-07T11:48:50.113Z,964.03
2019-06-07T11:49:50.157Z,963.96
2019-06-07T11:50:50.187Z,963.90
2019-06-07T11:51:50.239Z,963.83
2019-06-07T11:52:50.309Z,963.78
2019-06-07T11:53:50.370Z,963.73
2019-06-07T11:54:50.443Z,963.77
2019-06-07T11:55:50.461Z,963.83
2019-06-07T11:56:50.511Z,963.83
2019-06-07T11:57:50.570Z,963.88
2019-06-07T11:58:50.629Z,963.89
2019-06-07T11:59:50.751Z,963.87
2019-06-07T12:00:50.738Z,963.82
2019-06-07T12:01:50.791Z,963.70
2019-06-07T12:02:50.854Z,963.66
2019-06-07T12:03:50.940Z,963.63
2019-06-07T12:04:50.998Z,963.70
2019-06-07T12:05:51.034Z,963.69
2019-06-07T12:06:51.079Z,963.70
2019-06-07T12:07:51.127Z,963.68
2019-06-07T12:08:51.215Z,963.68
2019-06-07T12:09:56.348Z,963.70
2019-06-07T12:10:51.293Z,963.71
2019-06-07T12:11:51.352Z,963.69
2019-06-07T12:12:51.404Z,963.64
2019-06-07T12:13:51.512Z,963.60
2019-06-07T12:14:51.521Z,963.51
2019-06-07T12:15:51.603Z,963.48
2019-06-07T12:16:51.639Z,963.50
2019-06-07T12:17:51.687Z,963.49
2019-06-07T12:18:51.761Z,963.45
2019-06-07T12:19:51.802Z,963.44
2019-06-07T12:20:51.865Z,963.43
2019-06-07T12:21:51.918Z,963.39
2019-06-07T12:22:51.989Z,963.47
2019-06-07T12:23:52.046Z,963.42
2019-06-07T12:24:52.100Z,963.37
2019-06-07T12:25:52.139Z,963.34
2019-06-07T12:26:52.217Z,963.25
2019-06-07T12:27:52.260Z,963.25
2019-06-07T12:28:52.328Z,963.21
2019-06-07T12:29:52.402Z,963.20
2019-06-07T12:30:55.099Z,963.20
2019-06-07T12:31:52.494Z,963.18
2019-06-07T12:32:52.537Z,963.22
2019-06-07T12:33:52.631Z,963.25
2019-06-07T12:34:52.698Z,963.20
2019-06-07T12:35:52.721Z,963.22
2019-06-07T12:36:52.779Z,963.15
2019-06-07T12:37:52.889Z,963.14